sensor_id;sensor_type;location;lat;lon;timestamp;P1;durP1;ratioP1;P2;durP2;ratioP2
73136;SDS011;62977;45.636;11.750;2022-11-15T00:00:53;30.25;;;17.88;;
73136;SDS011;62977;45.636;11.750;2022-11-15T00:03:20;32.47;;;18.45;;
73136;SDS011;62977;45.636;11.750;2022-11-15T00:05:50;29.90;;;17.77;;
73136;SDS011;62977;45.636;11.750;2022-11-15T00:08:16;30.17;;;18.40;;
73136;SDS011;62977;45.636;11.750;2022-11-15T00:10:42;40.67;;;20.23;;
73136;SDS011;62977;45.636;11.750;2022-11-15T00:13:18;35.85;;;19.50;;
73136;SDS011;62977;45.636;11.750;2022-11-15T00:15:43;29.77;;;17.67;;
73136;SDS011;62977;45.636;11.750;2022-11-15T00:18:13;30.80;;;17.15;;
73136;SDS011;62977;45.636;11.750;2022-11-15T00:20:40;32.43;;;17.57;;
73136;SDS011;62977;45.636;11.750;2022-11-15T00:23:06;26.95;;;15.98;;
73136;SDS011;62977;45.636;11.750;2022-11-15T00:25:32;31.63;;;17.83;;
73136;SDS011;62977;45.636;11.750;2022-11-15T00:27:58;30.10;;;18.13;;
73136;SDS011;62977;45.636;11.750;2022-11-15T00:30:25;29.48;;;17.65;;
73136;SDS011;62977;45.636;11.750;2022-11-15T00:32:52;31.02;;;17.77;;
73136;SDS011;62977;45.636;11.750;2022-11-15T00:35:18;33.47;;;17.98;;
73136;SDS011;62977;45.636;11.750;2022-11-15T00:37:44;32.13;;;17.53;;
73136;SDS011;62977;45.636;11.750;2022-11-15T00:40:10;27.10;;;16.98;;
73136;SDS011;62977;45.636;11.750;2022-11-15T00:42:37;31.25;;;17.58;;
73136;SDS011;62977;45.636;11.750;2022-11-15T00:45:03;31.47;;;17.70;;
73136;SDS011;62977;45.636;11.750;2022-11-15T00:47:29;31.67;;;18.08;;
73136;SDS011;62977;45.636;11.750;2022-11-15T00:49:55;26.90;;;16.77;;
73136;SDS011;62977;45.636;11.750;2022-11-15T00:52:20;36.63;;;16.70;;
73136;SDS011;62977;45.636;11.750;2022-11-15T00:54:46;28.13;;;16.60;;
73136;SDS011;62977;45.636;11.750;2022-11-15T00:57:12;29.70;;;16.97;;
73136;SDS011;62977;45.636;11.750;2022-11-15T00:59:37;31.47;;;17.73;;
73136;SDS011;62977;45.636;11.750;2022-11-15T01:02:03;30.80;;;16.63;;
73136;SDS011;62977;45.636;11.750;2022-11-15T01:04:29;30.33;;;17.00;;
73136;SDS011;62977;45.636;11.750;2022-11-15T01:06:54;26.58;;;16.20;;
73136;SDS011;62977;45.636;11.750;2022-11-15T01:09:20;27.07;;;16.43;;
73136;SDS011;62977;45.636;11.750;2022-11-15T01:11:46;30.50;;;16.27;;
73136;SDS011;62977;45.636;11.750;2022-11-15T01:14:11;25.67;;;16.83;;
73136;SDS011;62977;45.636;11.750;2022-11-15T01:16:37;26.17;;;16.57;;
73136;SDS011;62977;45.636;11.750;2022-11-15T01:19:03;30.60;;;16.87;;
73136;SDS011;62977;45.636;11.750;2022-11-15T01:21:28;33.47;;;18.08;;
73136;SDS011;62977;45.636;11.750;2022-11-15T01:23:54;28.53;;;15.67;;
73136;SDS011;62977;45.636;11.750;2022-11-15T01:26:21;36.38;;;18.58;;
73136;SDS011;62977;45.636;11.750;2022-11-15T01:28:48;31.52;;;17.33;;
73136;SDS011;62977;45.636;11.750;2022-11-15T01:31:15;33.30;;;17.43;;
73136;SDS011;62977;45.636;11.750;2022-11-15T01:33:43;37.78;;;18.92;;
73136;SDS011;62977;45.636;11.750;2022-11-15T01:36:11;32.13;;;17.90;;
73136;SDS011;62977;45.636;11.750;2022-11-15T01:38:41;34.55;;;17.27;;
73136;SDS011;62977;45.636;11.750;2022-11-15T01:41:17;35.58;;;18.30;;
73136;SDS011;62977;45.636;11.750;2022-11-15T01:43:46;36.00;;;17.37;;
73136;SDS011;62977;45.636;11.750;2022-11-15T01:49:00;31.70;;;17.83;;
73136;SDS011;62977;45.636;11.750;2022-11-15T01:51:31;33.30;;;17.23;;
73136;SDS011;62977;45.636;11.750;2022-11-15T01:53:59;33.53;;;17.77;;
73136;SDS011;62977;45.636;11.750;2022-11-15T01:56:32;36.73;;;17.43;;
73136;SDS011;62977;45.636;11.750;2022-11-15T01:59:03;37.38;;;18.48;;
73136;SDS011;62977;45.636;11.750;2022-11-15T02:01:30;35.55;;;17.85;;
73136;SDS011;62977;45.636;11.750;2022-11-15T02:04:09;33.85;;;18.00;;
73136;SDS011;62977;45.636;11.750;2022-11-15T02:06:46;33.65;;;17.40;;
73136;SDS011;62977;45.636;11.750;2022-11-15T02:09:13;33.80;;;17.37;;
73136;SDS011;62977;45.636;11.750;2022-11-15T02:11:39;33.13;;;17.88;;
73136;SDS011;62977;45.636;11.750;2022-11-15T02:14:05;32.88;;;17.27;;
73136;SDS011;62977;45.636;11.750;2022-11-15T02:16:48;33.72;;;17.92;;
73136;SDS011;62977;45.636;11.750;2022-11-15T02:22:46;33.70;;;17.03;;
73136;SDS011;62977;45.636;11.750;2022-11-15T02:28:06;34.88;;;16.98;;
73136;SDS011;62977;45.636;11.750;2022-11-15T02:31:28;38.47;;;17.10;;
73136;SDS011;62977;45.636;11.750;2022-11-15T02:36:44;31.97;;;16.70;;
73136;SDS011;62977;45.636;11.750;2022-11-15T02:39:31;35.53;;;17.65;;
73136;SDS011;62977;45.636;11.750;2022-11-15T02:42:33;35.20;;;17.65;;
73136;SDS011;62977;45.636;11.750;2022-11-15T02:45:26;35.35;;;16.98;;
73136;SDS011;62977;45.636;11.750;2022-11-15T02:47:56;32.58;;;17.27;;
73136;SDS011;62977;45.636;11.750;2022-11-15T02:50:25;28.47;;;15.13;;
73136;SDS011;62977;45.636;11.750;2022-11-15T02:52:53;31.60;;;15.63;;
73136;SDS011;62977;45.636;11.750;2022-11-15T02:55:29;31.05;;;15.88;;
73136;SDS011;62977;45.636;11.750;2022-11-15T03:00:39;32.40;;;15.80;;
73136;SDS011;62977;45.636;11.750;2022-11-15T03:06:05;35.95;;;15.40;;
73136;SDS011;62977;45.636;11.750;2022-11-15T03:11:16;36.03;;;17.17;;
73136;SDS011;62977;45.636;11.750;2022-11-15T03:16:20;36.00;;;18.05;;
73136;SDS011;62977;45.636;11.750;2022-11-15T03:19:45;37.58;;;17.15;;
73136;SDS011;62977;45.636;11.750;2022-11-15T03:21:54;37.03;;;16.43;;
73136;SDS011;62977;45.636;11.750;2022-11-15T03:24:22;34.45;;;17.45;;
73136;SDS011;62977;45.636;11.750;2022-11-15T03:26:50;35.65;;;17.30;;
73136;SDS011;62977;45.636;11.750;2022-11-15T03:29:20;32.42;;;16.33;;
73136;SDS011;62977;45.636;11.750;2022-11-15T03:31:58;32.90;;;16.30;;
73136;SDS011;62977;45.636;11.750;2022-11-15T03:34:32;34.07;;;15.27;;
73136;SDS011;62977;45.636;11.750;2022-11-15T03:37:21;32.95;;;15.65;;
73136;SDS011;62977;45.636;11.750;2022-11-15T03:39:50;32.80;;;16.42;;
73136;SDS011;62977;45.636;11.750;2022-11-15T03:44:58;31.45;;;16.27;;
73136;SDS011;62977;45.636;11.750;2022-11-15T03:47:31;38.23;;;15.97;;
73136;SDS011;62977;45.636;11.750;2022-11-15T03:50:04;36.20;;;15.88;;
73136;SDS011;62977;45.636;11.750;2022-11-15T03:52:37;32.65;;;15.70;;
73136;SDS011;62977;45.636;11.750;2022-11-15T03:55:06;26.70;;;15.30;;
73136;SDS011;62977;45.636;11.750;2022-11-15T03:57:35;31.70;;;14.63;;
73136;SDS011;62977;45.636;11.750;2022-11-15T04:00:02;28.63;;;14.93;;
73136;SDS011;62977;45.636;11.750;2022-11-15T04:02:29;26.98;;;14.07;;
73136;SDS011;62977;45.636;11.750;2022-11-15T04:04:54;30.10;;;14.45;;
73136;SDS011;62977;45.636;11.750;2022-11-15T04:07:20;32.63;;;14.10;;
73136;SDS011;62977;45.636;11.750;2022-11-15T04:09:46;31.02;;;14.20;;
73136;SDS011;62977;45.636;11.750;2022-11-15T04:12:27;44.60;;;14.87;;
73136;SDS011;62977;45.636;11.750;2022-11-15T04:15:07;26.67;;;14.70;;
73136;SDS011;62977;45.636;11.750;2022-11-15T04:17:41;29.65;;;14.77;;
73136;SDS011;62977;45.636;11.750;2022-11-15T04:22:54;33.58;;;14.20;;
73136;SDS011;62977;45.636;11.750;2022-11-15T04:25:39;33.67;;;13.80;;
73136;SDS011;62977;45.636;11.750;2022-11-15T04:28:05;30.02;;;14.90;;
73136;SDS011;62977;45.636;11.750;2022-11-15T04:30:31;29.83;;;14.75;;
73136;SDS011;62977;45.636;11.750;2022-11-15T04:32:57;44.03;;;14.03;;
73136;SDS011;62977;45.636;11.750;2022-11-15T04:35:22;41.38;;;13.85;;
73136;SDS011;62977;45.636;11.750;2022-11-15T04:37:48;54.50;;;14.17;;
73136;SDS011;62977;45.636;11.750;2022-11-15T04:40:14;53.13;;;14.57;;
73136;SDS011;62977;45.636;11.750;2022-11-15T04:42:42;55.13;;;14.43;;
73136;SDS011;62977;45.636;11.750;2022-11-15T04:45:09;45.80;;;13.30;;
73136;SDS011;62977;45.636;11.750;2022-11-15T04:47:35;53.47;;;15.68;;
73136;SDS011;62977;45.636;11.750;2022-11-15T04:50:01;47.37;;;13.53;;
73136;SDS011;62977;45.636;11.750;2022-11-15T04:52:27;50.25;;;14.40;;
73136;SDS011;62977;45.636;11.750;2022-11-15T04:54:52;40.92;;;13.57;;
73136;SDS011;62977;45.636;11.750;2022-11-15T04:57:18;54.83;;;14.13;;
73136;SDS011;62977;45.636;11.750;2022-11-15T04:59:44;48.63;;;13.35;;
73136;SDS011;62977;45.636;11.750;2022-11-15T05:02:09;60.77;;;13.33;;
73136;SDS011;62977;45.636;11.750;2022-11-15T05:04:35;47.60;;;13.17;;
73136;SDS011;62977;45.636;11.750;2022-11-15T05:07:01;40.72;;;11.60;;
73136;SDS011;62977;45.636;11.750;2022-11-15T05:09:27;56.22;;;12.45;;
73136;SDS011;62977;45.636;11.750;2022-11-15T05:11:52;33.30;;;12.00;;
73136;SDS011;62977;45.636;11.750;2022-11-15T05:14:18;39.33;;;12.27;;
73136;SDS011;62977;45.636;11.750;2022-11-15T05:16:44;42.57;;;11.90;;
73136;SDS011;62977;45.636;11.750;2022-11-15T05:19:09;30.85;;;12.27;;
73136;SDS011;62977;45.636;11.750;2022-11-15T05:21:36;32.17;;;11.57;;
73136;SDS011;62977;45.636;11.750;2022-11-15T05:24:02;34.10;;;11.83;;
73136;SDS011;62977;45.636;11.750;2022-11-15T05:26:28;24.88;;;11.63;;
73136;SDS011;62977;45.636;11.750;2022-11-15T05:28:54;48.33;;;14.07;;
73136;SDS011;62977;45.636;11.750;2022-11-15T05:31:21;28.70;;;11.20;;
73136;SDS011;62977;45.636;11.750;2022-11-15T05:33:48;28.55;;;12.00;;
73136;SDS011;62977;45.636;11.750;2022-11-15T05:36:25;27.25;;;12.15;;
73136;SDS011;62977;45.636;11.750;2022-11-15T05:38:56;23.05;;;11.75;;
73136;SDS011;62977;45.636;11.750;2022-11-15T05:41:26;23.33;;;11.43;;
73136;SDS011;62977;45.636;11.750;2022-11-15T05:44:01;21.67;;;11.73;;
73136;SDS011;62977;45.636;11.750;2022-11-15T05:46:29;22.50;;;12.18;;
73136;SDS011;62977;45.636;11.750;2022-11-15T05:48:55;19.73;;;12.23;;
73136;SDS011;62977;45.636;11.750;2022-11-15T05:51:22;23.55;;;12.05;;
73136;SDS011;62977;45.636;11.750;2022-11-15T05:53:48;26.42;;;12.65;;
73136;SDS011;62977;45.636;11.750;2022-11-15T05:56:15;26.33;;;12.60;;
73136;SDS011;62977;45.636;11.750;2022-11-15T05:58:41;24.77;;;12.63;;
73136;SDS011;62977;45.636;11.750;2022-11-15T06:01:08;27.38;;;11.85;;
73136;SDS011;62977;45.636;11.750;2022-11-15T06:03:34;25.15;;;12.30;;
73136;SDS011;62977;45.636;11.750;2022-11-15T06:06:00;26.83;;;13.13;;
73136;SDS011;62977;45.636;11.750;2022-11-15T06:08:26;29.77;;;13.20;;
73136;SDS011;62977;45.636;11.750;2022-11-15T06:10:52;87.80;;;16.00;;
73136;SDS011;62977;45.636;11.750;2022-11-15T06:13:17;30.13;;;14.33;;
73136;SDS011;62977;45.636;11.750;2022-11-15T06:15:43;27.33;;;14.63;;
73136;SDS011;62977;45.636;11.750;2022-11-15T06:18:09;35.23;;;15.17;;
73136;SDS011;62977;45.636;11.750;2022-11-15T06:20:35;26.13;;;13.30;;
73136;SDS011;62977;45.636;11.750;2022-11-15T06:23:01;31.07;;;13.67;;
73136;SDS011;62977;45.636;11.750;2022-11-15T06:25:28;47.20;;;14.13;;
73136;SDS011;62977;45.636;11.750;2022-11-15T06:27:55;32.45;;;15.05;;
73136;SDS011;62977;45.636;11.750;2022-11-15T06:30:22;50.30;;;13.43;;
73136;SDS011;62977;45.636;11.750;2022-11-15T06:32:50;43.40;;;12.75;;
73136;SDS011;62977;45.636;11.750;2022-11-15T06:35:16;28.80;;;12.93;;
73136;SDS011;62977;45.636;11.750;2022-11-15T06:37:41;30.90;;;13.55;;
73136;SDS011;62977;45.636;11.750;2022-11-15T06:40:07;27.07;;;12.03;;
73136;SDS011;62977;45.636;11.750;2022-11-15T06:42:34;31.45;;;12.10;;
73136;SDS011;62977;45.636;11.750;2022-11-15T06:45:00;24.85;;;12.88;;
73136;SDS011;62977;45.636;11.750;2022-11-15T06:47:26;24.93;;;12.73;;
73136;SDS011;62977;45.636;11.750;2022-11-15T06:49:51;23.88;;;12.60;;
73136;SDS011;62977;45.636;11.750;2022-11-15T06:52:17;36.43;;;12.73;;
73136;SDS011;62977;45.636;11.750;2022-11-15T06:54:44;41.95;;;12.68;;
73136;SDS011;62977;45.636;11.750;2022-11-15T06:57:10;44.45;;;14.20;;
73136;SDS011;62977;45.636;11.750;2022-11-15T06:59:36;49.13;;;14.23;;
73136;SDS011;62977;45.636;11.750;2022-11-15T07:02:02;33.70;;;14.63;;
73136;SDS011;62977;45.636;11.750;2022-11-15T07:04:28;33.33;;;14.50;;
73136;SDS011;62977;45.636;11.750;2022-11-15T07:06:54;36.20;;;13.10;;
73136;SDS011;62977;45.636;11.750;2022-11-15T07:09:19;33.13;;;13.88;;
73136;SDS011;62977;45.636;11.750;2022-11-15T07:11:45;45.80;;;12.97;;
73136;SDS011;62977;45.636;11.750;2022-11-15T07:14:11;35.28;;;14.23;;
73136;SDS011;62977;45.636;11.750;2022-11-15T07:16:36;34.63;;;15.13;;
73136;SDS011;62977;45.636;11.750;2022-11-15T07:19:02;35.97;;;14.48;;
73136;SDS011;62977;45.636;11.750;2022-11-15T07:21:28;35.10;;;14.83;;
73136;SDS011;62977;45.636;11.750;2022-11-15T07:23:54;29.02;;;13.73;;
73136;SDS011;62977;45.636;11.750;2022-11-15T07:26:20;26.67;;;13.40;;
73136;SDS011;62977;45.636;11.750;2022-11-15T07:28:46;26.37;;;13.70;;
73136;SDS011;62977;45.636;11.750;2022-11-15T07:31:11;60.28;;;16.73;;
73136;SDS011;62977;45.636;11.750;2022-11-15T07:33:37;33.50;;;12.83;;
73136;SDS011;62977;45.636;11.750;2022-11-15T07:36:04;28.80;;;12.95;;
73136;SDS011;62977;45.636;11.750;2022-11-15T07:38:31;23.83;;;10.57;;
73136;SDS011;62977;45.636;11.750;2022-11-15T07:41:01;28.90;;;12.25;;
73136;SDS011;62977;45.636;11.750;2022-11-15T07:43:28;25.60;;;12.83;;
73136;SDS011;62977;45.636;11.750;2022-11-15T07:45:55;26.73;;;13.63;;
73136;SDS011;62977;45.636;11.750;2022-11-15T07:48:22;28.08;;;13.52;;
73136;SDS011;62977;45.636;11.750;2022-11-15T07:50:47;20.95;;;12.35;;
73136;SDS011;62977;45.636;11.750;2022-11-15T07:53:13;22.30;;;12.83;;
73136;SDS011;62977;45.636;11.750;2022-11-15T07:55:39;23.60;;;12.75;;
73136;SDS011;62977;45.636;11.750;2022-11-15T07:58:07;24.43;;;12.83;;
73136;SDS011;62977;45.636;11.750;2022-11-15T08:00:35;26.23;;;12.93;;
73136;SDS011;62977;45.636;11.750;2022-11-15T08:03:08;27.80;;;11.23;;
73136;SDS011;62977;45.636;11.750;2022-11-15T08:05:36;22.60;;;12.00;;
73136;SDS011;62977;45.636;11.750;2022-11-15T08:08:03;34.08;;;12.85;;
73136;SDS011;62977;45.636;11.750;2022-11-15T08:10:29;23.90;;;11.47;;
73136;SDS011;62977;45.636;11.750;2022-11-15T08:13:02;25.95;;;12.50;;
73136;SDS011;62977;45.636;11.750;2022-11-15T08:15:29;33.65;;;11.98;;
73136;SDS011;62977;45.636;11.750;2022-11-15T08:18:00;56.15;;;12.65;;
73136;SDS011;62977;45.636;11.750;2022-11-15T08:20:27;28.02;;;12.43;;
73136;SDS011;62977;45.636;11.750;2022-11-15T08:22:57;39.07;;;12.27;;
73136;SDS011;62977;45.636;11.750;2022-11-15T08:25:24;24.55;;;9.50;;
73136;SDS011;62977;45.636;11.750;2022-11-15T08:28:00;37.70;;;12.07;;
73136;SDS011;62977;45.636;11.750;2022-11-15T08:30:28;30.10;;;11.77;;
73136;SDS011;62977;45.636;11.750;2022-11-15T08:32:55;28.30;;;11.82;;
73136;SDS011;62977;45.636;11.750;2022-11-15T08:35:22;55.37;;;13.63;;
73136;SDS011;62977;45.636;11.750;2022-11-15T08:37:48;24.65;;;12.93;;
73136;SDS011;62977;45.636;11.750;2022-11-15T08:40:14;21.63;;;11.32;;
73136;SDS011;62977;45.636;11.750;2022-11-15T08:42:40;23.90;;;11.67;;
73136;SDS011;62977;45.636;11.750;2022-11-15T08:45:06;21.35;;;11.10;;
73136;SDS011;62977;45.636;11.750;2022-11-15T08:47:32;22.35;;;11.32;;
73136;SDS011;62977;45.636;11.750;2022-11-15T08:49:59;18.48;;;11.13;;
73136;SDS011;62977;45.636;11.750;2022-11-15T08:52:25;19.10;;;11.27;;
73136;SDS011;62977;45.636;11.750;2022-11-15T08:54:50;24.55;;;11.88;;
73136;SDS011;62977;45.636;11.750;2022-11-15T08:57:16;22.07;;;12.60;;
73136;SDS011;62977;45.636;11.750;2022-11-15T08:59:42;21.35;;;11.88;;
73136;SDS011;62977;45.636;11.750;2022-11-15T09:02:11;19.57;;;11.87;;
73136;SDS011;62977;45.636;11.750;2022-11-15T09:04:42;21.40;;;12.05;;
73136;SDS011;62977;45.636;11.750;2022-11-15T09:07:11;24.75;;;12.55;;
73136;SDS011;62977;45.636;11.750;2022-11-15T09:09:38;18.83;;;11.23;;
73136;SDS011;62977;45.636;11.750;2022-11-15T09:12:04;19.47;;;11.17;;
73136;SDS011;62977;45.636;11.750;2022-11-15T09:14:31;19.02;;;11.85;;
73136;SDS011;62977;45.636;11.750;2022-11-15T09:16:57;21.50;;;11.32;;
73136;SDS011;62977;45.636;11.750;2022-11-15T09:19:23;19.55;;;11.73;;
73136;SDS011;62977;45.636;11.750;2022-11-15T09:21:49;23.75;;;15.27;;
73136;SDS011;62977;45.636;11.750;2022-11-15T09:24:14;18.93;;;12.40;;
73136;SDS011;62977;45.636;11.750;2022-11-15T09:26:40;19.50;;;11.63;;
73136;SDS011;62977;45.636;11.750;2022-11-15T09:29:06;22.53;;;11.97;;
73136;SDS011;62977;45.636;11.750;2022-11-15T09:31:32;28.42;;;14.85;;
73136;SDS011;62977;45.636;11.750;2022-11-15T09:33:57;23.30;;;13.00;;
73136;SDS011;62977;45.636;11.750;2022-11-15T09:36:23;20.67;;;13.03;;
73136;SDS011;62977;45.636;11.750;2022-11-15T09:38:49;23.30;;;13.55;;
73136;SDS011;62977;45.636;11.750;2022-11-15T09:43:45;23.10;;;13.20;;
73136;SDS011;62977;45.636;11.750;2022-11-15T09:46:15;23.10;;;13.05;;
73136;SDS011;62977;45.636;11.750;2022-11-15T09:49:02;22.25;;;13.02;;
73136;SDS011;62977;45.636;11.750;2022-11-15T10:04:39;26.53;;;13.77;;
73136;SDS011;62977;45.636;11.750;2022-11-15T10:09:46;23.65;;;14.30;;
73136;SDS011;62977;45.636;11.750;2022-11-15T10:12:16;25.70;;;14.07;;
73136;SDS011;62977;45.636;11.750;2022-11-15T10:14:42;25.03;;;14.00;;
73136;SDS011;62977;45.636;11.750;2022-11-15T10:20:12;21.85;;;13.30;;
73136;SDS011;62977;45.636;11.750;2022-11-15T10:22:48;23.45;;;14.48;;
73136;SDS011;62977;45.636;11.750;2022-11-15T10:25:17;28.73;;;15.82;;
73136;SDS011;62977;45.636;11.750;2022-11-15T10:27:58;23.30;;;14.87;;
73136;SDS011;62977;45.636;11.750;2022-11-15T10:30:31;27.48;;;14.82;;
73136;SDS011;62977;45.636;11.750;2022-11-15T10:33:12;24.67;;;14.27;;
73136;SDS011;62977;45.636;11.750;2022-11-15T10:35:48;22.85;;;13.05;;
73136;SDS011;62977;45.636;11.750;2022-11-15T10:39:10;18.88;;;11.82;;
73136;SDS011;62977;45.636;11.750;2022-11-15T10:44:28;25.23;;;14.05;;
73136;SDS011;62977;45.636;11.750;2022-11-15T10:47:33;22.85;;;13.75;;
73136;SDS011;62977;45.636;11.750;2022-11-15T10:49:55;24.90;;;13.68;;
73136;SDS011;62977;45.636;11.750;2022-11-15T10:52:23;23.65;;;13.35;;
73136;SDS011;62977;45.636;11.750;2022-11-15T10:55:00;26.27;;;13.53;;
73136;SDS011;62977;45.636;11.750;2022-11-15T10:57:51;22.23;;;12.75;;
73136;SDS011;62977;45.636;11.750;2022-11-15T11:03:04;22.40;;;13.60;;
73136;SDS011;62977;45.636;11.750;2022-11-15T11:05:50;23.90;;;13.68;;
73136;SDS011;62977;45.636;11.750;2022-11-15T11:08:29;22.85;;;13.60;;
73136;SDS011;62977;45.636;11.750;2022-11-15T11:10:58;22.70;;;14.03;;
73136;SDS011;62977;45.636;11.750;2022-11-15T11:13:29;29.35;;;19.35;;
73136;SDS011;62977;45.636;11.750;2022-11-15T11:29:59;23.00;;;13.43;;
73136;SDS011;62977;45.636;11.750;2022-11-15T11:32:50;24.20;;;13.48;;
73136;SDS011;62977;45.636;11.750;2022-11-15T11:35:28;20.92;;;12.93;;
73136;SDS011;62977;45.636;11.750;2022-11-15T11:46:09;22.92;;;12.82;;
73136;SDS011;62977;45.636;11.750;2022-11-15T11:54:20;19.67;;;11.40;;
73136;SDS011;62977;45.636;11.750;2022-11-15T11:56:52;19.42;;;11.93;;
73136;SDS011;62977;45.636;11.750;2022-11-15T12:02:14;26.02;;;11.80;;
73136;SDS011;62977;45.636;11.750;2022-11-15T12:04:48;18.27;;;10.95;;
73136;SDS011;62977;45.636;11.750;2022-11-15T12:07:23;18.08;;;10.88;;
73136;SDS011;62977;45.636;11.750;2022-11-15T12:12:39;19.03;;;10.93;;
73136;SDS011;62977;45.636;11.750;2022-11-15T12:15:19;18.17;;;10.55;;
73136;SDS011;62977;45.636;11.750;2022-11-15T12:17:51;23.48;;;12.38;;
73136;SDS011;62977;45.636;11.750;2022-11-15T12:30:18;18.85;;;11.73;;
73136;SDS011;62977;45.636;11.750;2022-11-15T12:32:50;22.17;;;11.68;;
73136;SDS011;62977;45.636;11.750;2022-11-15T12:35:35;17.95;;;11.60;;
73136;SDS011;62977;45.636;11.750;2022-11-15T12:38:03;21.23;;;10.90;;
73136;SDS011;62977;45.636;11.750;2022-11-15T12:40:33;18.15;;;10.48;;
73136;SDS011;62977;45.636;11.750;2022-11-15T12:45:39;21.42;;;10.48;;
73136;SDS011;62977;45.636;11.750;2022-11-15T12:58:56;26.48;;;13.00;;
73136;SDS011;62977;45.636;11.750;2022-11-15T13:01:52;30.42;;;14.88;;
73136;SDS011;62977;45.636;11.750;2022-11-15T13:04:22;28.00;;;12.17;;
73136;SDS011;62977;45.636;11.750;2022-11-15T13:12:00;28.75;;;12.98;;
73136;SDS011;62977;45.636;11.750;2022-11-15T13:17:03;23.30;;;12.57;;
73136;SDS011;62977;45.636;11.750;2022-11-15T13:19:44;31.23;;;13.32;;
73136;SDS011;62977;45.636;11.750;2022-11-15T13:22:12;27.98;;;12.38;;
73136;SDS011;62977;45.636;11.750;2022-11-15T13:24:56;25.65;;;11.77;;
73136;SDS011;62977;45.636;11.750;2022-11-15T13:27:22;24.90;;;12.37;;
73136;SDS011;62977;45.636;11.750;2022-11-15T13:29:49;20.92;;;10.95;;
73136;SDS011;62977;45.636;11.750;2022-11-15T13:32:15;26.42;;;12.32;;
73136;SDS011;62977;45.636;11.750;2022-11-15T13:34:45;24.20;;;11.85;;
73136;SDS011;62977;45.636;11.750;2022-11-15T13:37:34;19.60;;;10.05;;
73136;SDS011;62977;45.636;11.750;2022-11-15T13:42:55;16.88;;;9.18;;
73136;SDS011;62977;45.636;11.750;2022-11-15T13:45:22;21.95;;;10.82;;
73136;SDS011;62977;45.636;11.750;2022-11-15T13:47:55;22.15;;;10.27;;
73136;SDS011;62977;45.636;11.750;2022-11-15T13:50:27;18.20;;;9.75;;
73136;SDS011;62977;45.636;11.750;2022-11-15T13:52:57;16.37;;;9.53;;
73136;SDS011;62977;45.636;11.750;2022-11-15T13:55:26;16.17;;;9.50;;
73136;SDS011;62977;45.636;11.750;2022-11-15T13:57:55;16.08;;;9.30;;
73136;SDS011;62977;45.636;11.750;2022-11-15T14:03:17;17.27;;;9.35;;
73136;SDS011;62977;45.636;11.750;2022-11-15T14:06:14;14.70;;;8.77;;
73136;SDS011;62977;45.636;11.750;2022-11-15T14:09:04;17.75;;;10.30;;
73136;SDS011;62977;45.636;11.750;2022-11-15T14:11:35;17.98;;;9.75;;
73136;SDS011;62977;45.636;11.750;2022-11-15T14:24:36;19.17;;;10.90;;
73136;SDS011;62977;45.636;11.750;2022-11-15T14:29:51;19.05;;;11.02;;
73136;SDS011;62977;45.636;11.750;2022-11-15T14:32:18;18.17;;;11.07;;
73136;SDS011;62977;45.636;11.750;2022-11-15T14:34:53;23.17;;;12.63;;
73136;SDS011;62977;45.636;11.750;2022-11-15T14:37:32;21.90;;;11.55;;
73136;SDS011;62977;45.636;11.750;2022-11-15T14:40:00;22.27;;;12.27;;
73136;SDS011;62977;45.636;11.750;2022-11-15T14:42:30;23.75;;;12.38;;
73136;SDS011;62977;45.636;11.750;2022-11-15T14:44:56;19.60;;;11.70;;
73136;SDS011;62977;45.636;11.750;2022-11-15T14:47:22;20.15;;;11.40;;
73136;SDS011;62977;45.636;11.750;2022-11-15T14:49:47;27.00;;;12.23;;
73136;SDS011;62977;45.636;11.750;2022-11-15T14:52:29;21.27;;;11.93;;
73136;SDS011;62977;45.636;11.750;2022-11-15T14:55:01;23.17;;;13.40;;
73136;SDS011;62977;45.636;11.750;2022-11-15T14:57:28;21.35;;;12.48;;
73136;SDS011;62977;45.636;11.750;2022-11-15T14:59:54;20.85;;;12.23;;
73136;SDS011;62977;45.636;11.750;2022-11-15T15:02:21;22.88;;;12.38;;
73136;SDS011;62977;45.636;11.750;2022-11-15T15:04:49;21.77;;;11.83;;
73136;SDS011;62977;45.636;11.750;2022-11-15T15:07:15;21.15;;;12.57;;
73136;SDS011;62977;45.636;11.750;2022-11-15T15:09:41;24.23;;;13.27;;
73136;SDS011;62977;45.636;11.750;2022-11-15T15:12:25;26.92;;;16.58;;
73136;SDS011;62977;45.636;11.750;2022-11-15T15:14:51;40.95;;;22.25;;
73136;SDS011;62977;45.636;11.750;2022-11-15T15:17:17;36.37;;;20.57;;
73136;SDS011;62977;45.636;11.750;2022-11-15T15:19:43;31.52;;;18.27;;
73136;SDS011;62977;45.636;11.750;2022-11-15T15:22:16;28.80;;;15.40;;
73136;SDS011;62977;45.636;11.750;2022-11-15T15:24:43;25.17;;;15.13;;
73136;SDS011;62977;45.636;11.750;2022-11-15T15:27:10;26.35;;;14.73;;
73136;SDS011;62977;45.636;11.750;2022-11-15T15:29:36;25.63;;;14.15;;
73136;SDS011;62977;45.636;11.750;2022-11-15T15:32:02;26.50;;;15.03;;
73136;SDS011;62977;45.636;11.750;2022-11-15T15:34:27;26.42;;;15.07;;
73136;SDS011;62977;45.636;11.750;2022-11-15T15:39:52;30.42;;;16.75;;
73136;SDS011;62977;45.636;11.750;2022-11-15T15:42:22;37.22;;;21.33;;
73136;SDS011;62977;45.636;11.750;2022-11-15T15:44:48;29.65;;;19.35;;
73136;SDS011;62977;45.636;11.750;2022-11-15T15:47:21;34.50;;;20.33;;
73136;SDS011;62977;45.636;11.750;2022-11-15T15:49:48;30.90;;;18.67;;
73136;SDS011;62977;45.636;11.750;2022-11-15T15:52:15;32.53;;;19.25;;
73136;SDS011;62977;45.636;11.750;2022-11-15T15:54:40;27.27;;;17.17;;
73136;SDS011;62977;45.636;11.750;2022-11-15T15:57:07;30.15;;;16.92;;
73136;SDS011;62977;45.636;11.750;2022-11-15T15:59:35;67.33;;;30.33;;
73136;SDS011;62977;45.636;11.750;2022-11-15T16:02:01;82.15;;;36.70;;
73136;SDS011;62977;45.636;11.750;2022-11-15T16:04:27;53.77;;;28.33;;
73136;SDS011;62977;45.636;11.750;2022-11-15T16:06:57;43.35;;;23.90;;
73136;SDS011;62977;45.636;11.750;2022-11-15T16:09:26;36.47;;;22.58;;
73136;SDS011;62977;45.636;11.750;2022-11-15T16:12:10;33.40;;;18.23;;
73136;SDS011;62977;45.636;11.750;2022-11-15T16:14:36;36.43;;;21.30;;
73136;SDS011;62977;45.636;11.750;2022-11-15T16:17:02;35.22;;;19.63;;
73136;SDS011;62977;45.636;11.750;2022-11-15T16:19:28;38.22;;;21.83;;
73136;SDS011;62977;45.636;11.750;2022-11-15T16:21:54;38.73;;;20.97;;
73136;SDS011;62977;45.636;11.750;2022-11-15T16:24:20;37.15;;;21.50;;
73136;SDS011;62977;45.636;11.750;2022-11-15T16:26:46;39.13;;;23.15;;
73136;SDS011;62977;45.636;11.750;2022-11-15T16:29:13;29.58;;;17.45;;
73136;SDS011;62977;45.636;11.750;2022-11-15T16:31:39;39.50;;;22.03;;
73136;SDS011;62977;45.636;11.750;2022-11-15T16:34:05;36.08;;;20.33;;
73136;SDS011;62977;45.636;11.750;2022-11-15T16:36:32;37.65;;;21.55;;
73136;SDS011;62977;45.636;11.750;2022-11-15T16:38:59;37.58;;;20.48;;
73136;SDS011;62977;45.636;11.750;2022-11-15T16:41:29;31.63;;;17.90;;
73136;SDS011;62977;45.636;11.750;2022-11-15T16:43:55;34.63;;;20.00;;